Cacilhas — VRUA8 — position and weather

sailwx.info

Track history (hours):
 
Tides and Currents Weather Stations Pressure Air Temp Water Temp Dewpoint Dewpoint Depression Visibility Wind Speed Wind Dir Waves Ship Positions

Cacilhas

Last reported at 2016-Jul-29 11:33 UTC. Time now 2016-Jul-29 12:04 UTC.
Position N 22°17' E 114°09'.

Length 29 m.

Type: Ship (hazmat cat D). MMSI: 477092000.

Date/timePositionNaut miles runAvg speedWind from/ knotsBaromVisibWave heightAir tempDewpointWater temp
2016-Jul-29 11:33N 22°17' E 114°09'1 0.6
2016-Jul-29 09:12N 22°18' E 114°08'1 2.1
2016-Jul-29 08:33N 22°17' E 114°09'1 0.6
2016-Jul-29 06:10N 22°18' E 114°08'1 2.3
2016-Jul-29 05:33N 22°17' E 114°09'2019.2
2016-Jul-29 04:31N 22°11' E 113°49'1 0.8
2016-Jul-29 03:12N 22°12' E 113°48'2031.5
2016-Jul-29 02:33N 22°17' E 114°09'2018.5
2016-Jul-29 01:29N 22°11' E 113°49'1 0.9
2016-Jul-29 00:09N 22°12' E 113°48'2032.9
2016-Jul-28 23:33N 22°17' E 114°09'2018.5
2016-Jul-28 22:28N 22°11' E 113°49'18 8.0
2016-Jul-28 20:13N 22°17' E 114°07'2 2.9
2016-Jul-28 19:33N 22°17' E 114°09'1 0.6
2016-Jul-28 17:11N 22°18' E 114°08'2 2.3
2016-Jul-28 16:33N 22°17' E 114°09'2018.4
2016-Jul-28 15:28N 22°11' E 113°49'20 6.5
2016-Jul-28 12:25N 22°17' E 114°09'2020.7
2016-Jul-28 11:27N 22°11' E 113°49'1 0.7
2016-Jul-28 10:10N 22°12' E 113°48'2029.6
2016-Jul-28 09:30N 22°17' E 114°09'2019.2
2016-Jul-28 08:28N 22°11' E 113°49'2010.3
2016-Jul-28 06:33N 22°17' E 114°09'2 0.5
2016-Jul-28 03:15N 22°18' E 114°07'2 2.2
2016-Jul-28 02:33N 22°17' E 114°09'2 0.7
2016-Jul-28 00:11N 22°17' E 114°07'2 2.7
2016-Jul-27 23:32N 22°17' E 114°09'2018.8
2016-Jul-27 22:28N 22°11' E 113°49'18 8.5
2016-Jul-27 20:21N 22°17' E 114°07'1817.8
2016-Jul-27 19:20N 22°11' E 113°49'1 0.9
2016-Jul-27 18:07N 22°12' E 113°48'2035.9
2016-Jul-27 17:33N 22°17' E 114°09'2018.4
2016-Jul-27 16:28N 22°11' E 113°49'1 0.4
2016-Jul-27 14:12N 22°12' E 113°48'2031.0
2016-Jul-27 13:33N 22°17' E 114°09'2018.3
2016-Jul-27 12:27N 22°11' E 113°49'1 0.9
2016-Jul-27 11:12N 22°12' E 113°48'2029.3
2016-Jul-27 10:30N 22°17' E 114°09'2019.3
2016-Jul-27 09:28N 22°11' E 113°49'2010.1
2016-Jul-27 07:31N 22°17' E 114°09'2019.8
2016-Jul-27 06:31N 22°11' E 113°49'18 9.0
2016-Jul-27 04:28N 22°18' E 114°08'1819.3
2016-Jul-27 03:30N 22°11' E 113°49'18 7.8
2016-Jul-27 01:12N 22°17' E 114°07'2 3.1
2016-Jul-27 00:33N 22°17' E 114°09'20 3.1
2016-Jul-26 18:08N 22°12' E 113°48'2031.0
2016-Jul-26 17:29N 22°17' E 114°09'2021.4
2016-Jul-26 16:33N 22°11' E 113°49'1 0.8
2016-Jul-26 15:09N 22°12' E 113°48'2033.4
2016-Jul-26 14:33N 22°17' E 114°09'2018.2
2016-Jul-26 13:28N 22°11' E 113°49'1 0.7
2016-Jul-26 12:06N 22°12' E 113°48'2037.6
2016-Jul-26 11:33N 22°17' E 114°09'2019.0
2016-Jul-26 10:30N 22°11' E 113°49'1 0.7
2016-Jul-26 09:14N 22°12' E 113°48'2030.2
2016-Jul-26 08:33N 22°17' E 114°09'2019.2
2016-Jul-26 07:31N 22°11' E 113°49'20 6.7
2016-Jul-26 04:33N 22°17' E 114°09'1 0.4
2016-Jul-26 02:08N 22°18' E 114°08'1 1.4
2016-Jul-26 01:34N 22°17' E 114°09'1 0.3
2016-Jul-25 23:09N 22°18' E 114°08'1 1.6
2016-Jul-25 22:33N 22°17' E 114°09'0 0.0
2016-Jul-25 21:30N 22°17' E 114°09'0 0.0
2016-Jul-25 20:33N 22°17' E 114°09'0 0.0
2016-Jul-25 17:32N 22°17' E 114°09'0 0.0
2016-Jul-25 16:34N 22°17' E 114°09'1 0.4
2016-Jul-25 13:12N 22°18' E 114°08'1 1.9
2016-Jul-25 12:33N 22°17' E 114°09'1 0.5
2016-Jul-25 10:12N 22°18' E 114°08'1 1.8
2016-Jul-25 09:33N 22°17' E 114°09'2 1.0
2016-Jul-25 07:21N 22°17' E 114°07'2 2.6
2016-Jul-25 06:33N 22°17' E 114°09'2511.2
2016-Jul-25 04:17N 22°12' E 113°42'2635.0
2016-Jul-25 03:33N 22°17' E 114°09'1918.2
2016-Jul-25 02:31N 22°11' E 113°50'2 1.5
2016-Jul-25 01:11N 22°12' E 113°48'2030.9
2016-Jul-25 00:31N 22°17' E 114°09'2020.5
2016-Jul-24 23:33N 22°11' E 113°49'19 3.0
2016-Jul-24 17:08N 22°18' E 114°08'1 1.9
2016-Jul-24 16:33N 22°17' E 114°09'1 0.3
2016-Jul-24 13:11N 22°18' E 114°08'1 1.5
2016-Jul-24 12:33N 22°17' E 114°09'1 0.6
2016-Jul-24 10:12N 22°18' E 114°08'1 2.1
2016-Jul-24 09:33N 22°17' E 114°09'1 0.4
2016-Jul-24 07:13N 22°18' E 114°08'1 1.5
2016-Jul-24 06:33N 22°17' E 114°09'20 8.4
2016-Jul-24 04:09N 22°12' E 113°48'2034.0
2016-Jul-24 03:33N 22°17' E 114°09'2018.1
2016-Jul-24 02:28N 22°11' E 113°49'20 9.7
2016-Jul-24 00:25N 22°17' E 114°09'2021.2
2016-Jul-23 23:29N 22°11' E 113°49'19 3.0
2016-Jul-23 17:10N 22°18' E 114°08'0 0.6
2016-Jul-23 16:33N 22°18' E 114°08'1 0.2
2016-Jul-23 13:33N 22°17' E 114°09'2018.5
2016-Jul-23 12:29N 22°11' E 113°49'1 0.9
2016-Jul-23 11:10N 22°12' E 113°48'2028.8
2016-Jul-23 10:27N 22°17' E 114°09'20 9.1
2016-Jul-23 08:13N 22°12' E 113°48'2029.9
2016-Jul-23 07:33N 22°17' E 114°09'2019.7
2016-Jul-23 06:33N 22°11' E 113°49'19 8.1
2016-Jul-23 04:11N 22°18' E 114°08'1917.3
2016-Jul-23 03:04N 22°11' E 113°48'2010.6
2016-Jul-23 01:12N 22°18' E 114°08'1 1.3
2016-Jul-23 00:33N 22°17' E 114°09'0 0.0
2016-Jul-22 23:33N 22°17' E 114°09'0 0.0
2016-Jul-22 22:33N 22°17' E 114°09'0 0.0
2016-Jul-22 21:33N 22°17' E 114°09'0 0.0
2016-Jul-22 20:33N 22°17' E 114°09'0 0.1
2016-Jul-22 19:32N 22°17' E 114°09'0 0.0
2016-Jul-22 18:34N 22°17' E 114°09'0 0.0
2016-Jul-22 17:33N 22°17' E 114°09'0 0.0
2016-Jul-22 16:33N 22°17' E 114°09'0 0.0
2016-Jul-22 15:33N 22°17' E 114°09'0 0.0
2016-Jul-22 14:33N 22°17' E 114°09'0 0.0
2016-Jul-22 13:33N 22°17' E 114°09'0 0.0
2016-Jul-22 12:32N 22°17' E 114°09'0 0.0
2016-Jul-22 11:33N 22°17' E 114°09'0 0.0
2016-Jul-22 07:33N 22°17' E 114°09'  
Track history (hours):
 
Tides and Currents Weather Stations Pressure Air Temp Water Temp Dewpoint Dewpoint Depression Visibility Wind Speed Wind Dir Waves Ship Positions

Cacilhas

Last reported at 2016-Jul-29 11:33 UTC. Time now 2016-Jul-29 12:04 UTC.
Position N 22°17' E 114°09'.

Length 29 m.

Type: Ship (hazmat cat D). MMSI: 477092000.

Date/timePositionNaut miles runAvg speedWind from/ knotsBaromVisibWave heightAir tempDewpointWater temp
2016-Jul-29 11:33N 22°17' E 114°09'1 0.6
2016-Jul-29 09:12N 22°18' E 114°08'1 2.1
2016-Jul-29 08:33N 22°17' E 114°09'1 0.6
2016-Jul-29 06:10N 22°18' E 114°08'1 2.3
2016-Jul-29 05:33N 22°17' E 114°09'2019.2
2016-Jul-29 04:31N 22°11' E 113°49'1 0.8
2016-Jul-29 03:12N 22°12' E 113°48'2031.5
2016-Jul-29 02:33N 22°17' E 114°09'2018.5
2016-Jul-29 01:29N 22°11' E 113°49'1 0.9
2016-Jul-29 00:09N 22°12' E 113°48'2032.9
2016-Jul-28 23:33N 22°17' E 114°09'2018.5
2016-Jul-28 22:28N 22°11' E 113°49'18 8.0
2016-Jul-28 20:13N 22°17' E 114°07'2 2.9
2016-Jul-28 19:33N 22°17' E 114°09'1 0.6
2016-Jul-28 17:11N 22°18' E 114°08'2 2.3
2016-Jul-28 16:33N 22°17' E 114°09'2018.4
2016-Jul-28 15:28N 22°11' E 113°49'20 6.5
2016-Jul-28 12:25N 22°17' E 114°09'2020.7
2016-Jul-28 11:27N 22°11' E 113°49'1 0.7
2016-Jul-28 10:10N 22°12' E 113°48'2029.6
2016-Jul-28 09:30N 22°17' E 114°09'2019.2
2016-Jul-28 08:28N 22°11' E 113°49'2010.3
2016-Jul-28 06:33N 22°17' E 114°09'2 0.5
2016-Jul-28 03:15N 22°18' E 114°07'2 2.2
2016-Jul-28 02:33N 22°17' E 114°09'2 0.7
2016-Jul-28 00:11N 22°17' E 114°07'2 2.7
2016-Jul-27 23:32N 22°17' E 114°09'2018.8
2016-Jul-27 22:28N 22°11' E 113°49'18 8.5
2016-Jul-27 20:21N 22°17' E 114°07'1817.8
2016-Jul-27 19:20N 22°11' E 113°49'1 0.9
2016-Jul-27 18:07N 22°12' E 113°48'2035.9
2016-Jul-27 17:33N 22°17' E 114°09'2018.4
2016-Jul-27 16:28N 22°11' E 113°49'1 0.4
2016-Jul-27 14:12N 22°12' E 113°48'2031.0
2016-Jul-27 13:33N 22°17' E 114°09'2018.3
2016-Jul-27 12:27N 22°11' E 113°49'1 0.9
2016-Jul-27 11:12N 22°12' E 113°48'2029.3
2016-Jul-27 10:30N 22°17' E 114°09'2019.3
2016-Jul-27 09:28N 22°11' E 113°49'2010.1
2016-Jul-27 07:31N 22°17' E 114°09'2019.8
2016-Jul-27 06:31N 22°11' E 113°49'18 9.0
2016-Jul-27 04:28N 22°18' E 114°08'1819.3
2016-Jul-27 03:30N 22°11' E 113°49'18 7.8
2016-Jul-27 01:12N 22°17' E 114°07'2 3.1
2016-Jul-27 00:33N 22°17' E 114°09'20 3.1
2016-Jul-26 18:08N 22°12' E 113°48'2031.0
2016-Jul-26 17:29N 22°17' E 114°09'2021.4
2016-Jul-26 16:33N 22°11' E 113°49'1 0.8
2016-Jul-26 15:09N 22°12' E 113°48'2033.4
2016-Jul-26 14:33N 22°17' E 114°09'2018.2
2016-Jul-26 13:28N 22°11' E 113°49'1 0.7
2016-Jul-26 12:06N 22°12' E 113°48'2037.6
2016-Jul-26 11:33N 22°17' E 114°09'2019.0
2016-Jul-26 10:30N 22°11' E 113°49'1 0.7
2016-Jul-26 09:14N 22°12' E 113°48'2030.2
2016-Jul-26 08:33N 22°17' E 114°09'2019.2
2016-Jul-26 07:31N 22°11' E 113°49'20 6.7
2016-Jul-26 04:33N 22°17' E 114°09'1 0.4
2016-Jul-26 02:08N 22°18' E 114°08'1 1.4
2016-Jul-26 01:34N 22°17' E 114°09'1 0.3
2016-Jul-25 23:09N 22°18' E 114°08'1 1.6
2016-Jul-25 22:33N 22°17' E 114°09'0 0.0
2016-Jul-25 21:30N 22°17' E 114°09'0 0.0
2016-Jul-25 20:33N 22°17' E 114°09'0 0.0
2016-Jul-25 17:32N 22°17' E 114°09'0 0.0
2016-Jul-25 16:34N 22°17' E 114°09'1 0.4
2016-Jul-25 13:12N 22°18' E 114°08'1 1.9
2016-Jul-25 12:33N 22°17' E 114°09'1 0.5
2016-Jul-25 10:12N 22°18' E 114°08'1 1.8
2016-Jul-25 09:33N 22°17' E 114°09'2 1.0
2016-Jul-25 07:21N 22°17' E 114°07'2 2.6
2016-Jul-25 06:33N 22°17' E 114°09'2511.2
2016-Jul-25 04:17N 22°12' E 113°42'2635.0
2016-Jul-25 03:33N 22°17' E 114°09'1918.2
2016-Jul-25 02:31N 22°11' E 113°50'2 1.5
2016-Jul-25 01:11N 22°12' E 113°48'2030.9
2016-Jul-25 00:31N 22°17' E 114°09'2020.5
2016-Jul-24 23:33N 22°11' E 113°49'19 3.0
2016-Jul-24 17:08N 22°18' E 114°08'1 1.9
2016-Jul-24 16:33N 22°17' E 114°09'1 0.3
2016-Jul-24 13:11N 22°18' E 114°08'1 1.5
2016-Jul-24 12:33N 22°17' E 114°09'1 0.6
2016-Jul-24 10:12N 22°18' E 114°08'1 2.1
2016-Jul-24 09:33N 22°17' E 114°09'1 0.4
2016-Jul-24 07:13N 22°18' E 114°08'1 1.5
2016-Jul-24 06:33N 22°17' E 114°09'20 8.4
2016-Jul-24 04:09N 22°12' E 113°48'2034.0
2016-Jul-24 03:33N 22°17' E 114°09'2018.1
2016-Jul-24 02:28N 22°11' E 113°49'20 9.7
2016-Jul-24 00:25N 22°17' E 114°09'2021.2
2016-Jul-23 23:29N 22°11' E 113°49'19 3.0
2016-Jul-23 17:10N 22°18' E 114°08'0 0.6
2016-Jul-23 16:33N 22°18' E 114°08'1 0.2
2016-Jul-23 13:33N 22°17' E 114°09'2018.5
2016-Jul-23 12:29N 22°11' E 113°49'1 0.9
2016-Jul-23 11:10N 22°12' E 113°48'2028.8
2016-Jul-23 10:27N 22°17' E 114°09'20 9.1
2016-Jul-23 08:13N 22°12' E 113°48'2029.9
2016-Jul-23 07:33N 22°17' E 114°09'2019.7
2016-Jul-23 06:33N 22°11' E 113°49'19 8.1
2016-Jul-23 04:11N 22°18' E 114°08'1917.3
2016-Jul-23 03:04N 22°11' E 113°48'2010.6
2016-Jul-23 01:12N 22°18' E 114°08'1 1.3
2016-Jul-23 00:33N 22°17' E 114°09'0 0.0
2016-Jul-22 23:33N 22°17' E 114°09'0 0.0
2016-Jul-22 22:33N 22°17' E 114°09'0 0.0
2016-Jul-22 21:33N 22°17' E 114°09'0 0.0
2016-Jul-22 20:33N 22°17' E 114°09'0 0.1
2016-Jul-22 19:32N 22°17' E 114°09'0 0.0
2016-Jul-22 18:34N 22°17' E 114°09'0 0.0
2016-Jul-22 17:33N 22°17' E 114°09'0 0.0
2016-Jul-22 16:33N 22°17' E 114°09'0 0.0
2016-Jul-22 15:33N 22°17' E 114°09'0 0.0
2016-Jul-22 14:33N 22°17' E 114°09'0 0.0
2016-Jul-22 13:33N 22°17' E 114°09'0 0.0
2016-Jul-22 12:32N 22°17' E 114°09'0 0.0
2016-Jul-22 11:33N 22°17' E 114°09'0 0.0
2016-Jul-22 07:33N 22°17' E 114°09'  

Dump ship's entire track history